Falmouth, MA (02540)

5:03 AM EDT on May 04, 2015 (GMT -0400)
Falmouth Village | | Change Station
CLOSE
Current Station
Personal Weather Station
Location: Falmouth, MA
Elevation: 13 ft
Nearby Weather Stations

Elev 13 ft 41.55 °N, 70.61 °W | Updated 0 second ago

Clear
Clear
50.0 °F
Feels Like 50.0 °F
N
2.9
Wind Variable Wind from SSW
Gusts 2.9 mph

Today
High -- | Low -- °F
--% Chance of Precip.
Yesterday
High -- | Low -- °F
Precip. -- in
5:35 AM 7:43 PM
Full, 100% visible
Pressure 30.19 in
Visibility 10.0 miles
Clouds Clear
Dew Point 50 °F
Humidity 98%
Rainfall 0.00 in
Snow Depth Not available.
UV 0 out of 12
Pollen 10.70 out of 12
Air Quality Not available.
Flu Activity Widespread
METAR KEWB 040753Z AUTO 20004KT 10SM CLR 08/07 A3019 RMK AO2 SLP223 T00830072

More Conditions Fewer Conditions

Pressure 30.19 in
Visibility 10.0 miles
Clouds Clear
Dew Point 50 °F
Humidity 98%
Rainfall 0.00 in
Snow Depth Not available.
UV 0 out of 12
Pollen 10.70 out of 12
Air Quality Not available.
Flu Activity Widespread
METAR KEWB 040753Z AUTO 20004KT 10SM CLR 08/07 A3019 RMK AO2 SLP223 T00830072

More Conditions Fewer Conditions

Nepal has a long way to go to dig out and rebuild from a devastating earthquake. We have teamed up with several charities and organizations to make contributing to the relief effort as easy as possible.
How you can help: Portlight Strategies | Red Cross

10-Day Weather Forecast

Almanac

Astronomy

May. 04, 2015 Rise Set
Actual Time
Civil Twilight
Nautical Twilight
Astronomical Twilight
Moon
Length of Visible Light
Length of Day
Tomorrow will be .
, % of the Moon is Illuminated

Today's Extremes

State Highs State Lows

Community

WunderPhotos

Upload Photos

1,818,548 photos uploaded!

WunderBlogs® & News

Nearby

Air Quality

  Air Quality AQ Index Pollutant
Not available.

Snow Depth

Station Depth Elevation

Earthquake Activity

City Distance Mag. Time & Date
Minimum magnitude displayed is 2.5.

Coastal Water Temperatures

Place Temperature

Stations

Nearby Weather Stations

Station Location Temp. Windchill Dew Point Humidity Wind Precip. Elev Updated Type